createdAt,value
2018-12-31T12:50:39.605Z,14.10
2018-12-31T12:53:06.830Z,16.63
2018-12-31T12:55:34.516Z,11.00
2018-12-31T12:58:01.555Z,11.27
2018-12-31T13:00:29.334Z,11.87
2018-12-31T13:02:58.117Z,11.23
2018-12-31T13:05:25.189Z,10.60
2018-12-31T13:07:52.165Z,9.93
2018-12-31T13:10:19.766Z,11.13
2018-12-31T13:12:47.530Z,9.57
2018-12-31T13:15:14.532Z,11.53
2018-12-31T13:17:41.831Z,10.70
2018-12-31T13:20:09.201Z,12.17
2018-12-31T13:22:36.527Z,10.83
2018-12-31T13:25:03.750Z,10.60
2018-12-31T13:27:31.357Z,10.50
2018-12-31T13:29:58.361Z,11.80
2018-12-31T13:32:25.770Z,12.10
2018-12-31T13:34:52.950Z,9.87
2018-12-31T13:37:20.255Z,10.37
2018-12-31T13:39:47.262Z,10.00
2018-12-31T13:42:15.313Z,10.90
2018-12-31T13:44:42.325Z,9.87
2018-12-31T13:47:09.983Z,10.30
2018-12-31T14:32:47.148Z,12.10
2018-12-31T14:35:15.429Z,18.57
2018-12-31T14:37:44.403Z,14.97
2018-12-31T14:40:12.183Z,15.37
2018-12-31T14:42:39.194Z,13.80
2018-12-31T14:45:06.581Z,13.07
2018-12-31T14:47:33.939Z,15.18
2018-12-31T14:50:01.612Z,13.47
2018-12-31T14:52:30.147Z,11.13
2018-12-31T14:54:57.282Z,13.20
2018-12-31T14:57:25.228Z,9.20
2018-12-31T14:59:52.830Z,10.20
2018-12-31T15:02:20.833Z,10.60
2018-12-31T15:04:48.202Z,10.60
2018-12-31T15:07:15.846Z,7.00
2018-12-31T15:09:43.203Z,7.43
2018-12-31T15:12:10.862Z,8.73
2018-12-31T15:14:38.830Z,6.97
2018-12-31T15:17:06.491Z,7.53
2018-12-31T15:19:34.403Z,6.40
2018-12-31T15:22:02.166Z,7.30
2018-12-31T15:24:29.186Z,6.70
2018-12-31T15:26:56.527Z,7.23
2018-12-31T15:29:25.113Z,6.90
2018-12-31T15:31:53.488Z,6.97
2018-12-31T15:34:21.147Z,7.27
2018-12-31T15:36:48.607Z,7.53
2018-12-31T15:39:17.189Z,7.37
2018-12-31T15:41:44.856Z,6.03
2018-12-31T15:44:12.619Z,6.90
2018-12-31T15:46:40.279Z,7.50
2018-12-31T15:49:07.631Z,4.50
2018-12-31T15:51:35.703Z,5.73
2018-12-31T15:54:03.156Z,5.00
2018-12-31T15:56:30.215Z,7.13
2018-12-31T15:58:57.970Z,5.50
2018-12-31T16:01:25.634Z,6.10
2018-12-31T16:03:52.894Z,7.33
2018-12-31T16:06:20.452Z,9.03
2018-12-31T17:14:23.153Z,7.53
2018-12-31T17:20:16.230Z,5.80
2018-12-31T17:22:45.930Z,6.93
2018-12-31T17:25:13.295Z,5.37
2018-12-31T17:27:40.795Z,9.57
2018-12-31T17:30:12.919Z,9.87
2018-12-31T17:32:40.686Z,10.00
2018-12-31T17:35:08.741Z,11.23
2018-12-31T17:37:36.211Z,10.10
2018-12-31T17:40:04.794Z,9.83
2018-12-31T17:42:32.191Z,44.90
2018-12-31T17:44:59.297Z,11.30
2018-12-31T17:47:26.967Z,9.27
2018-12-31T17:49:54.358Z,12.50
2018-12-31T17:52:22.311Z,8.97
2018-12-31T17:54:50.577Z,9.60
2018-12-31T17:57:19.259Z,9.67
2018-12-31T17:59:47.170Z,7.90
2018-12-31T18:02:14.587Z,12.70
2018-12-31T18:04:41.907Z,9.47
2018-12-31T18:07:08.939Z,10.13
2018-12-31T18:09:36.362Z,12.20
2018-12-31T18:12:03.778Z,11.40
2018-12-31T18:14:30.838Z,11.27
2018-12-31T18:16:58.196Z,9.90
2018-12-31T18:19:25.259Z,10.57
2018-12-31T18:21:52.581Z,11.87
2018-12-31T18:24:19.941Z,11.07
2018-12-31T18:26:47.289Z,8.40
2018-12-31T18:29:14.333Z,8.30
2018-12-31T18:31:42.721Z,11.77
2018-12-31T18:34:10.279Z,18.30
2018-12-31T18:36:37.532Z,17.67
2018-12-31T18:39:06.463Z,14.10
2018-12-31T18:41:35.206Z,11.60
2018-12-31T18:44:03.075Z,9.53
2018-12-31T18:46:31.043Z,9.77
2018-12-31T18:48:58.394Z,10.07
2018-12-31T18:51:25.438Z,9.27
2018-12-31T18:53:52.801Z,8.37
2018-12-31T18:56:19.841Z,5.93
2018-12-31T18:58:48.038Z,9.53
2018-12-31T19:01:15.375Z,8.27
2018-12-31T19:03:42.733Z,8.20
2018-12-31T19:06:09.774Z,10.20
2018-12-31T19:08:37.994Z,10.00
2018-12-31T19:11:05.347Z,11.43
2018-12-31T19:13:32.763Z,14.50
2018-12-31T19:15:59.808Z,15.00
2018-12-31T19:18:26.926Z,16.40
2018-12-31T19:20:53.950Z,17.00
2018-12-31T19:23:21.256Z,16.80
2018-12-31T19:25:48.269Z,16.80
2018-12-31T19:28:15.556Z,19.27
2018-12-31T19:30:42.684Z,28.60
2018-12-31T19:33:09.962Z,21.30
2018-12-31T19:35:36.997Z,18.80
2018-12-31T19:38:04.670Z,24.37
2018-12-31T19:40:32.019Z,20.10
2018-12-31T19:43:00.398Z,22.90
2018-12-31T19:45:28.064Z,19.27
2018-12-31T19:47:55.892Z,20.97
2018-12-31T19:50:23.494Z,22.10
2018-12-31T19:52:50.621Z,24.90
2018-12-31T19:55:19.177Z,29.10
2018-12-31T19:57:46.777Z,21.73
2018-12-31T20:00:13.785Z,23.20
2018-12-31T20:02:42.619Z,22.10
2018-12-31T20:05:09.968Z,91.67
2018-12-31T20:07:37.633Z,47.47
2018-12-31T20:10:05.321Z,21.30
2018-12-31T20:12:32.856Z,20.00
2018-12-31T20:15:01.229Z,21.73
2018-12-31T20:17:28.589Z,23.50
2018-12-31T20:19:56.039Z,21.47
2018-12-31T20:22:23.083Z,18.87
2018-12-31T20:24:54.131Z,16.00
2018-12-31T20:27:23.255Z,20.73
2018-12-31T20:29:50.883Z,16.47
2018-12-31T20:32:18.639Z,19.40
2018-12-31T20:34:47.060Z,18.13
2018-12-31T20:37:15.086Z,21.57
2018-12-31T20:39:42.094Z,20.00
2018-12-31T20:42:09.502Z,20.07
2018-12-31T20:44:37.678Z,18.83
2018-12-31T20:47:05.025Z,19.30
2018-12-31T20:49:32.385Z,20.37
2018-12-31T20:51:59.740Z,19.53
2018-12-31T20:54:26.823Z,20.50
2018-12-31T20:56:54.258Z,18.40
2018-12-31T20:59:21.342Z,19.03
2018-12-31T21:01:49.422Z,21.97
2018-12-31T21:04:16.924Z,17.70
2018-12-31T21:06:44.380Z,16.70
2018-12-31T21:09:13.473Z,18.17
2018-12-31T21:11:41.130Z,16.87
2018-12-31T22:05:39.800Z,14.73
2018-12-31T22:08:07.517Z,16.53
2018-12-31T22:10:35.177Z,15.40
2018-12-31T22:13:03.250Z,15.70
2018-12-31T22:15:30.603Z,18.13
2018-12-31T22:17:58.371Z,20.27
2018-12-31T22:20:33.114Z,16.07
2018-12-31T22:23:02.918Z,15.30
2018-12-31T22:25:30.175Z,42.27
2018-12-31T22:27:59.590Z,11.63
2018-12-31T22:30:37.910Z,10.10
2018-12-31T22:33:06.258Z,166.90
2018-12-31T22:35:33.711Z,27.53
2018-12-31T22:38:01.314Z,14.90
2018-12-31T22:40:28.625Z,11.60
2018-12-31T22:43:00.175Z,19.43
2018-12-31T22:45:28.660Z,20.20
2018-12-31T22:47:56.626Z,19.33
2018-12-31T22:50:24.289Z,20.27
2018-12-31T22:52:51.619Z,61.43
2018-12-31T22:55:20.634Z,50.00
2018-12-31T22:57:48.738Z,58.70
2018-12-31T23:00:16.765Z,62.37
2018-12-31T23:02:45.946Z,215.67
2018-12-31T23:05:15.275Z,136.77
2018-12-31T23:07:42.835Z,140.20
2018-12-31T23:10:10.278Z,161.27
2018-12-31T23:12:37.646Z,223.70
2018-12-31T23:15:09.002Z,143.07
2018-12-31T23:17:36.026Z,196.23
2018-12-31T23:20:04.124Z,120.73
2018-12-31T23:22:32.084Z,84.27
2018-12-31T23:24:59.238Z,105.47
2018-12-31T23:27:26.993Z,108.40
2018-12-31T23:29:55.387Z,108.37
2018-12-31T23:32:23.145Z,52.77
2018-12-31T23:34:53.563Z,48.53
2018-12-31T23:37:20.922Z,54.03
2018-12-31T23:39:47.974Z,30.10
2018-12-31T23:42:15.534Z,38.33
2018-12-31T23:44:43.691Z,18.20
2018-12-31T23:47:12.286Z,21.10
2018-12-31T23:49:40.659Z,15.67
2018-12-31T23:52:08.030Z,28.63
2018-12-31T23:54:35.371Z,18.90
2018-12-31T23:57:02.730Z,13.30
2018-12-31T23:59:29.888Z,16.20
